Terminal Aerodrome Forecast
Issued by NWS Wilmington, NC

Home | Current Version | Previous Version | Text Only | Print | Product List | Glossary On
Versions: 1 2 3 4 5 6 7 8 9 10 11 12 13
155
FTUS42 KILM 262320
TAFFLO
TAF
KFLO 262320Z 2700/2724 VRB06KT P6SM SCT050
     FM270100 VRB03KT P6SM FEW060
     FM270800 VRB02KT 5SM BR FEW060
     FM271200 04002KT 4SM BR SKC
     FM271300 08005KT P6SM SKC=

USA.gov is the U.S. government's official web portal to all federal, state and local government web resources and services.